Welkom  

   

Mijn Menu  

   

What's Up  

Geen evenementen
   

Wedstrijd  

Geen evenementen
   
   
   
   
   
   
   
   
   
   
   
   
   
   
Welkom, Gasten

Onderwerp: GPS geeft geen fix en geen positie

GPS geeft geen fix en geen positie 24 okt 2021 18:24 #1334865

  • syGabber
  • syGabber's Profielfoto
  • Offline
  • Gebruiker
  • Berichten: 430
ik zit hier te stoeien met een GPS ENAV-400 (Carcomm euro navigator 400) version 1.0 P/N: 20210400 S/N: 26072533

ik krijg slechts afwisselende beelden van gps posities aan de hemel in mijn GPS informatie scherm, er komen NMEA zinnen uit, waar ik ook positie data in zie maar mijn PC en apparatuur kunnen er niets mee.
zie hieronder de log van NMEA output (dump vanuit OpenCPN), enig idee wat er mis mee is ?

<GREEN>20:17:17 (Serial:COM7) $GPGSV,3,3,12,28,09,275,,24,07,295,20,19,05,168,,10,72,246,*72<0x0D><0x0A>
<GREEN>20:17:17 (Serial:COM7) $GPRMC,181721.00,V,5216.9007,N,00509.8275,E,,,100302,,,N*40<0x0D><0x0A>
<GREEN>20:17:17 (Serial:COM7) $GPGGA,181721.00,5216.9007,N,00509.8275,E,0,00,0.0,,M,,M,,*5B<0x0D><0x0A>
<GREEN>20:17:17 (Serial:COM7) $GPGSA,A,1,,,,,,,,,,,,,,,*1E<0x0D><0x0A>
<GREEN>20:17:54 (Serial:COM7) $GPRMC,181758.00,V,5216.9007,N,00509.8275,E,,,100302,,,N*4E<0x0D><0x0A>
<GREEN>20:17:54 (Serial:COM7) $GPGGA,181758.00,5216.9007,N,00509.8275,E,0,00,0.0,,M,,M,,*55<0x0D><0x0A>
<GREEN>20:17:54 (Serial:COM7) $GPGSA,A,1,,,,,,,,,,,,,,,*1E<0x0D><0x0A>
<GREEN>20:17:54 (Serial:COM7) $GPGSV,3,1,12,11,71,147,,20,69,069,,01,58,106,,23,31,180,*7F<0x0D><0x0A>
<GREEN>20:17:54 (Serial:COM7) $GPGSV,3,2,12,13,30,182,,14,22,053,,15,18,115,,25,17,094,*76<0x0D><0x0A>
<GREEN>20:17:54 (Serial:COM7) $GPGSV,3,3,12,28,08,275,,24,07,295,,19,04,168,,10,71,246,*73<0x0D><0x0A>
<GREEN>20:17:55 (Serial:COM7) $GPRMC,181759.00,V,5216.9007,N,00509.8275,E,,,100302,,,N*4F<0x0D><0x0A>
<GREEN>20:17:55 (Serial:COM7) $GPGGA,181759.00,5216.9007,N,00509.8275,E,0,00,0.0,,M,,M,,*54<0x0D><0x0A>
<GREEN>20:17:55 (Serial:COM7) $GPGSA,A,1,,,,,,,,,,,,,,,*1E<0x0D><0x0A>
<GREEN>20:17:55 (Serial:COM7) $GPGSV,3,1,12,11,71,147,,20,69,069,,01,58,106,,23,31,180,*7F<0x0D><0x0A>
<GREEN>20:17:55 (Serial:COM7) $GPGSV,3,2,12,13,30,182,,14,22,053,,15,18,115,,25,17,094,*76<0x0D><0x0A>
<GREEN>20:17:55 (Serial:COM7) $GPGSV,3,3,12,28,08,275,,24,07,295,,19,04,168,,10,71,246,*73<0x0D><0x0A>
<GREEN>20:17:56 (Serial:COM7) $GPRMC,181800.00,V,5216.9007,N,00509.8275,E,,,100302,,,N*4C<0x0D><0x0A>
<GREEN>20:17:56 (Serial:COM7) $GPGGA,181800.00,5216.9007,N,00509.8275,E,0,00,0.0,,M,,M,,*57<0x0D><0x0A>
<GREEN>20:17:56 (Serial:COM7) $GPGSA,A,1,,,,,,,,,,,,,,,*1E<0x0D><0x0A>
<GREEN>20:17:56 (Serial:COM7) $GPGSV,3,1,12,11,71,147,,20,69,069,,01,58,106,,23,31,180,*7F<0x0D><0x0A>
<GREEN>20:17:56 (Serial:COM7) $GPGSV,3,2,12,13,30,182,,14,22,053,,15,18,115,,25,17,094,*76<0x0D><0x0A>
<GREEN>20:17:57 (Serial:COM7) $GPGSV,3,3,12,28,08,275,,24,07,295,,19,04,168,,10,71,246,*73<0x0D><0x0A>
<GREEN>20:17:57 (Serial:COM7) $GPRMC,181801.00,V,5216.9007,N,00509.8275,E,,,100302,,,N*4D<0x0D><0x0A>
<GREEN>20:17:57 (Serial:COM7) $GPGGA,181801.00,5216.9007,N,00509.8275,E,0,00,0.0,,M,,M,,*56<0x0D><0x0A>
<GREEN>20:17:57 (Serial:COM7) $GPGSA,A,1,,,,,,,,,,,,,,,*1E<0x0D><0x0A>
<GREEN>20:17:57 (Serial:COM7) $GPGSV,3,1,12,11,71,147,,20,69,069,,01,58,106,,23,31,180,*7F<0x0D><0x0A>
<GREEN>20:17:57 (Serial:COM7) $GPGSV,3,2,12,13,30,182,,14,22,053,,15,18,115,,25,17,094,*76<0x0D><0x0A>
<GREEN>20:17:58 (Serial:COM7) $GPGSV,3,3,12,28,08,275,,24,07,295,,19,04,168,,10,71,246,*73<0x0D><0x0A>
<GREEN>20:17:58 (Serial:COM7) $GPRMC,181802.00,V,5216.9007,N,00509.8275,E,,,100302,,,N*4E<0x0D><0x0A>
<GREEN>20:17:58 (Serial:COM7) $GPGGA,181802.00,5216.9007,N,00509.8275,E,0,00,0.0,,M,,M,,*55<0x0D><0x0A>
<GREEN>20:17:58 (Serial:COM7) $GPGSA,A,1,,,,,,,,,,,,,,,*1E<0x0D><0x0A>
<GREEN>20:17:58 (Serial:COM7) $GPGSV,3,1,12,11,71,147,,20,69,069,,01,58,106,,23,31,180,*7F<0x0D><0x0A>
<GREEN>20:17:58 (Serial:COM7) $GPGSV,3,2,12,13,30,182,,14,22,053,,15,18,115,,25,17,094,*76<0x0D><0x0A>
<GREEN>20:17:59 (Serial:COM7) $GPGSV,3,3,12,28,08,275,,24,07,295,,19,04,168,,10,71,246,*73<0x0D><0x0A>
<GREEN>20:17:59 (Serial:COM7) $GPRMC,181803.00,V,5216.9007,N,00509.8275,E,,,100302,,,N*4F<0x0D><0x0A>
Alleen ingelogde leden kunnen reageren.

GPS geeft geen fix en geen positie 24 okt 2021 20:18 #1334878

  • koko
  • koko's Profielfoto
  • Offline
  • Gebruiker
  • Berichten: 13587
Van de zomer ook ineens de ontvangst kwijt. Na wat dubben en denken maar begonnen met het plaatsen van een nieuw stekkertje aan coax van de paddestoel. Probleem opgelost.

Ligt er misschien iets op of boven de antenne? Als wij hiken in de railing aan SB begint mijn marifoon te piepen dat hij de positie mist. Gps-je zit binnen, precies onder de billen van de hikers. Even opschuiven en weer ontvangst.
Alleen ingelogde leden kunnen reageren.

GPS geeft geen fix en geen positie 24 okt 2021 20:33 #1334879

  • Baralt
  • Baralt's Profielfoto
  • Offline
  • Gebruiker
  • Berichten: 177
$GPGGA,181802.00,5216.9007,N,00509.8275,E,0,00,0.0,,M,,M,,*55<0x0D><0x0A>

Positie vanuit GPS is bevroren, quality is 0(eerste veldje achter de E) dus geen GPS ontvangst.

Misschien moet hij de almanac nog binnenhalen, dus een tijdje aan laten staan ?
Etap 26
Kroonboot 23
Alleen ingelogde leden kunnen reageren.

GPS geeft geen fix en geen positie 24 okt 2021 22:34 #1334892

  • henkvd
  • henkvd's Profielfoto
  • aanwezig
  • Gebruiker
  • Berichten: 3798
GPRMC,181803.00,V ff de rmc afgebroken op het punt waar deze aangeeft no fix de V, dit moet een A worden.
GPRMC,181803.00,A,...................................
Alleen ingelogde leden kunnen reageren.

GPS geeft geen fix en geen positie 25 okt 2021 07:10 #1334906

Geeft hij geen (H)DOP weer?
Alleen ingelogde leden kunnen reageren.

GPS geeft geen fix en geen positie 25 okt 2021 07:22 #1334909

  • syGabber
  • syGabber's Profielfoto
  • Offline
  • Gebruiker
  • Berichten: 430
Alle antwoorder bedankt. Inderdaad is het euvel slechte ontvangst van de satelieten. Met Visual GPS inderdaad (H/V)DOP = 0 gezien en ook geen signaal sterkte balkjes.
Later de GPS buiten neer leggen en dan verwacht ik dat het goed komt.

Maar met mijn vraag toch weer geleerd van jullie waar in de zin de gegevens over de ontvangstkwaliteit staan.
Tnx.
Alleen ingelogde leden kunnen reageren.
Tijd voor maken pagina: 0.254 seconden
Gemaakt door Kunena
   
   
   
   
© Zeilersforum.nl